Time;durP1;ratioP1;P1;durP2;ratioP2;P2;SDS_P1;SDS_P2;PMS_P1;PMS_P2;Temp;Humidity;BMP_temperature;BMP_pressure;BME280_temperature;BME280_humidity;BME280_pressure;Samples;Min_cycle;Max_cycle;Signal;HPM_P1;HPM_P2
2022/06/13 00:01:30;;;;;;;7.53;3.67;;;;;;;18.73;68.08;100617.97;5032136;28;20041;-70
2022/06/13 00:03:56;;;;;;;7.22;3.92;;;;;;;18.69;68.21;100611.06;5032230;28;20061;-70
2022/06/13 00:06:21;;;;;;;6.97;3.10;;;;;;;18.69;68.34;100603.06;5032318;28;20037;-71
2022/06/13 00:08:47;;;;;;;6.78;3.60;;;;;;;18.68;68.48;100601.34;5032265;28;20108;-70
2022/06/13 00:11:15;;;;;;;7.05;3.45;;;;;;;18.72;68.36;100602.94;5032046;28;20048;-70
2022/06/13 00:13:44;;;;;;;5.22;2.85;;;;;;;18.71;68.26;100603.88;5013927;28;20033;-70
2022/06/13 00:16:11;;;;;;;8.13;3.30;;;;;;;18.76;68.05;100599.19;5046473;28;20030;-69
2022/06/13 00:18:36;;;;;;;5.13;2.85;;;;;;;18.77;67.94;100600.03;5034715;28;20033;-70
2022/06/13 00:21:02;;;;;;;8.18;3.25;;;;;;;18.75;67.86;100594.81;5036266;28;20029;-70
2022/06/13 00:23:28;;;;;;;5.53;3.03;;;;;;;18.76;67.75;100590.34;5035962;28;20033;-69
2022/06/13 00:25:54;;;;;;;5.88;2.92;;;;;;;18.81;67.71;100593.63;5035743;28;20091;-69
2022/06/13 00:28:21;;;;;;;7.65;2.55;;;;;;;18.80;67.69;100592.75;5035733;28;20109;-70
2022/06/13 00:30:46;;;;;;;5.97;2.95;;;;;;;18.77;67.45;100587.59;5018123;28;20477;-71
2022/06/13 00:33:12;;;;;;;5.43;2.50;;;;;;;18.74;67.57;100578.91;5001593;28;20033;-70
2022/06/13 00:35:38;;;;;;;6.50;2.50;;;;;;;18.78;67.40;100575.16;5035864;28;20112;-71
2022/06/13 00:38:04;;;;;;;5.28;2.20;;;;;;;18.74;67.49;100579.75;5035806;28;20038;-71
2022/06/13 00:40:31;;;;;;;6.03;2.58;;;;;;;18.65;67.73;100577.56;5035358;28;20044;-71
2022/06/13 00:42:56;;;;;;;7.10;2.53;;;;;;;18.64;67.82;100582.03;5035667;28;20036;-71
2022/06/13 00:45:36;;;;;;;6.97;2.60;;;;;;;18.59;67.78;100570.75;5035374;28;20037;-69
2022/06/13 00:48:03;;;;;;;4.68;2.33;;;;;;;18.52;68.29;100564.03;5035678;28;20033;-70
2022/06/13 00:50:40;;;;;;;5.35;2.15;;;;;;;18.46;67.83;100557.22;5035515;28;20041;-71
2022/06/13 00:53:15;;;;;;;5.20;2.30;;;;;;;18.52;67.89;100556.06;5035763;28;20108;-72
2022/06/13 00:55:56;;;;;;;3.70;2.38;;;;;;;18.47;68.11;100555.41;5017638;28;20029;-71
2022/06/13 00:58:25;;;;;;;5.95;2.30;;;;;;;18.42;68.31;100550.31;5034860;28;20480;-70
2022/06/13 01:00:53;;;;;;;5.85;2.55;;;;;;;18.42;68.35;100549.47;5017949;28;20044;-70
2022/06/13 01:03:18;;;;;;;7.00;3.20;;;;;;;18.28;68.30;100542.22;5035220;28;20096;-70
2022/06/13 01:05:47;;;;;;;7.03;2.58;;;;;;;18.15;68.45;100536.66;5017518;28;20495;-70
2022/06/13 01:08:16;;;;;;;6.40;2.40;;;;;;;18.15;68.83;100527.78;5035220;28;20037;-69
2022/06/13 01:14:04;;;;;;;5.30;2.70;;;;;;;18.13;68.41;100519.06;5034696;28;20484;-68
2022/06/13 01:16:46;;;;;;;8.00;2.83;;;;;;;18.07;68.65;100511.38;5034171;28;20041;-71
2022/06/13 01:19:29;;;;;;;8.10;3.58;;;;;;;18.05;68.55;100518.59;5034320;28;20384;-70
2022/06/13 01:22:00;;;;;;;5.13;2.15;;;;;;;18.07;68.75;100517.53;5016376;28;20045;-69
2022/06/13 01:24:53;;;;;;;7.75;3.30;;;;;;;18.10;68.67;100519.19;5016031;28;20042;-70
2022/06/13 01:27:24;;;;;;;4.88;3.20;;;;;;;17.98;68.68;100524.19;5015898;28;20128;-69
2022/06/13 01:30:28;;;;;;;7.80;3.97;;;;;;;18.18;68.45;100525.84;5027770;28;20040;-70
2022/06/13 01:33:08;;;;;;;6.13;3.55;;;;;;;18.70;67.47;100532.97;5028863;28;20022;-71
2022/06/13 01:36:01;;;;;;;7.15;3.28;;;;;;;17.83;68.89;100527.59;5033718;28;20044;-71
2022/06/13 01:38:32;;;;;;;7.22;3.67;;;;;;;17.85;69.22;100531.06;5034635;28;20033;-71
2022/06/13 01:41:16;;;;;;;7.45;3.55;;;;;;;17.98;68.52;100529.50;5034739;28;20033;-72
2022/06/13 01:44:08;;;;;;;7.13;3.38;;;;;;;17.87;68.63;100534.53;5033660;28;20029;-71
2022/06/13 01:46:53;;;;;;;4.85;3.35;;;;;;;17.82;68.54;100531.22;5016491;28;20048;-70
2022/06/13 01:49:40;;;;;;;6.53;3.33;;;;;;;17.69;69.42;100520.28;5016854;28;20041;-70
2022/06/13 01:52:06;;;;;;;8.20;3.67;;;;;;;17.64;69.64;100524.13;5030235;28;20111;-70
2022/06/13 01:54:46;;;;;;;6.13;3.20;;;;;;;17.61;69.25;100521.59;5033900;28;20033;-70
2022/06/13 01:57:31;;;;;;;7.35;3.78;;;;;;;17.62;69.50;100513.56;5034346;28;20438;-69
2022/06/13 02:00:03;;;;;;;6.70;3.90;;;;;;;17.57;69.67;100523.53;5034185;28;20036;-71
2022/06/13 02:03:03;;;;;;;6.57;3.50;;;;;;;17.56;69.54;100521.84;5033780;28;20464;-71
2022/06/13 02:05:52;;;;;;;6.43;3.75;;;;;;;17.57;69.79;100520.03;5034064;28;20048;-71
2022/06/13 02:08:23;;;;;;;6.40;3.25;;;;;;;17.58;69.11;100513.78;5033736;28;20033;-70
2022/06/13 02:10:56;;;;;;;4.22;2.85;;;;;;;17.54;69.22;100510.41;5027716;28;20064;-70
2022/06/13 02:13:47;;;;;;;5.85;3.33;;;;;;;17.47;69.26;100517.84;5033722;28;20112;-70
2022/06/13 02:16:17;;;;;;;6.68;3.65;;;;;;;17.98;67.89;100513.56;5033774;28;20049;-69
2022/06/13 02:19:25;;;;;;;5.13;3.13;;;;;;;17.46;68.43;100517.88;5033304;28;20033;-70
2022/06/13 02:21:57;;;;;;;7.57;4.20;;;;;;;17.68;67.96;100515.06;5031288;28;20041;-69
2022/06/13 02:24:27;;;;;;;8.32;3.60;;;;;;;17.53;67.94;100516.66;5033516;28;20392;-72
2022/06/13 02:26:57;;;;;;;5.93;3.85;;;;;;;17.75;66.87;100512.97;5031212;28;20076;-71
2022/06/13 02:29:41;;;;;;;7.82;3.45;;;;;;;17.78;66.24;100511.03;5033539;28;20511;-70
2022/06/13 02:32:24;;;;;;;7.50;3.50;;;;;;;17.82;66.02;100503.78;5011286;28;20033;-71
2022/06/13 02:34:55;;;;;;;6.40;3.40;;;;;;;17.74;66.53;100509.44;5033807;28;20044;-71
2022/06/13 02:37:35;;;;;;;5.70;3.40;;;;;;;17.78;66.05;100503.06;5033409;28;20030;-71
2022/06/13 02:40:15;;;;;;;7.15;2.97;;;;;;;17.85;65.58;100499.16;5026908;28;20405;-71
2022/06/13 02:43:00;;;;;;;8.18;3.35;;;;;;;17.85;65.49;100496.50;5032355;28;20454;-72
2022/06/13 02:45:32;;;;;;;5.65;2.80;;;;;;;17.72;65.76;100498.03;5015133;28;20030;-73
2022/06/13 02:48:15;;;;;;;6.13;3.17;;;;;;;17.56;65.88;100500.59;5033584;28;20469;-71
2022/06/13 02:51:22;;;;;;;7.07;2.90;;;;;;;17.49;65.87;100505.31;5030688;28;20095;-70
2022/06/13 02:54:04;;;;;;;6.63;2.67;;;;;;;17.40;66.36;100505.78;5015364;28;20040;-72
2022/06/13 03:00:10;;;;;;;5.95;2.40;;;;;;;17.58;66.07;100496.03;5033258;28;20393;-73
2022/06/13 03:02:54;;;;;;;6.75;2.85;;;;;;;17.58;66.02;100489.88;5015229;28;20033;-71
2022/06/13 03:05:38;;;;;;;5.70;2.78;;;;;;;17.60;66.33;100493.31;5032751;28;20037;-72
2022/06/13 03:08:25;;;;;;;6.20;2.70;;;;;;;17.65;66.17;100488.63;5029772;28;20481;-72
2022/06/13 03:11:11;;;;;;;4.15;2.40;;;;;;;17.69;65.71;100488.41;5030874;28;20112;-69
2022/06/13 03:13:40;;;;;;;4.40;2.30;;;;;;;17.73;65.85;100486.47;5030822;28;20029;-70
2022/06/13 03:16:28;;;;;;;9.85;3.67;;;;;;;17.77;65.64;100481.88;5010469;28;20030;-70
2022/06/13 03:19:02;;;;;;;5.45;3.55;;;;;;;17.81;65.74;100476.34;5026011;28;20025;-70
2022/06/13 03:21:33;;;;;;;8.65;3.05;;;;;;;17.87;65.55;100473.38;5029802;28;20033;-71
2022/06/13 03:24:13;;;;;;;6.22;3.30;;;;;;;17.97;65.15;100487.06;5031784;28;20481;-70
2022/06/13 03:26:56;;;;;;;7.30;3.28;;;;;;;18.12;65.12;100488.09;5029514;28;20117;-72
2022/06/13 03:29:33;;;;;;;6.70;2.72;;;;;;;18.11;64.88;100481.03;5032586;28;20108;-72
2022/06/13 03:32:08;;;;;;;5.22;2.90;;;;;;;18.06;65.25;100483.06;5029032;28;20141;-72
2022/06/13 03:34:39;;;;;;;8.88;2.60;;;;;;;17.89;65.59;100486.59;5047382;28;20113;-71
2022/06/13 03:37:06;;;;;;;5.28;2.63;;;;;;;17.79;65.81;100480.84;5032755;28;20037;-72
2022/06/13 03:39:38;;;;;;;5.30;2.35;;;;;;;17.79;66.17;100470.22;5031532;28;20025;-70
2022/06/13 03:42:42;;;;;;;5.10;2.97;;;;;;;17.97;66.08;100474.63;5015618;28;20035;-71
2022/06/13 03:45:18;;;;;;;5.82;2.42;;;;;;;18.10;65.56;100458.91;5023636;28;20184;-70
2022/06/13 03:47:56;;;;;;;7.88;3.13;;;;;;;18.21;65.20;100451.22;5017065;28;20033;-71
2022/06/13 03:50:30;;;;;;;8.10;2.97;;;;;;;18.31;65.33;100451.63;5021777;28;20025;-71
2022/06/13 03:53:04;;;;;;;6.07;2.60;;;;;;;18.41;65.04;100447.53;5035229;28;20105;-72
2022/06/13 03:55:38;;;;;;;5.63;2.72;;;;;;;18.52;65.14;100440.78;5037070;28;20056;-72
2022/06/13 03:58:18;;;;;;;6.53;3.22;;;;;;;18.63;64.92;100443.72;5000079;28;20025;-72
2022/06/13 04:01:09;;;;;;;6.35;2.88;;;;;;;18.85;64.46;100448.78;5017314;28;20116;-71
2022/06/13 04:03:36;;;;;;;7.25;3.63;;;;;;;19.02;63.99;100442.50;5017233;28;20037;-70
2022/06/13 04:06:26;;;;;;;12.25;3.53;;;;;;;19.05;63.81;100445.00;4999643;28;20041;-71
2022/06/13 04:08:51;;;;;;;4.38;3.33;;;;;;;19.12;63.48;100439.25;5007113;28;20489;-71
2022/06/13 04:11:28;;;;;;;6.82;3.13;;;;;;;19.29;62.80;100446.28;5034096;28;20613;-71
2022/06/13 04:14:25;;;;;;;7.15;3.15;;;;;;;19.36;61.88;100460.13;5036281;28;20033;-70
2022/06/13 04:17:28;;;;;;;5.88;3.03;;;;;;;19.74;61.04;100463.25;4992960;28;20048;-70
2022/06/13 04:20:22;;;;;;;5.05;2.50;;;;;;;19.90;60.91;100457.88;5017851;28;20116;-71
2022/06/13 04:23:21;;;;;;;7.18;2.70;;;;;;;20.09;59.72;100444.31;5017821;28;20037;-70
2022/06/13 04:25:58;;;;;;;5.20;2.45;;;;;;;20.19;60.15;100458.84;5031484;28;20038;-71
2022/06/13 04:28:33;;;;;;;4.03;2.50;;;;;;;20.23;59.59;100446.16;5033358;28;20041;-72
2022/06/13 04:31:00;;;;;;;5.80;2.50;;;;;;;20.22;59.95;100447.09;5030818;28;20497;-71
2022/06/13 04:33:36;;;;;;;6.07;2.72;;;;;;;20.05;59.83;100438.31;5033315;28;20124;-71
2022/06/13 04:36:04;;;;;;;6.20;2.55;;;;;;;19.97;60.23;100432.59;5029668;28;20030;-71
2022/06/13 04:38:32;;;;;;;6.00;2.88;;;;;;;19.75;60.75;100429.47;5014640;28;20459;-71
2022/06/13 04:41:01;;;;;;;7.85;2.60;;;;;;;19.71;60.80;100420.81;5034024;28;20167;-72
2022/06/13 04:43:33;;;;;;;4.20;2.42;;;;;;;19.73;60.96;100420.72;5032926;28;20018;-72
2022/06/13 04:46:04;;;;;;;5.43;2.85;;;;;;;19.62;61.24;100408.88;5049933;28;20049;-72
2022/06/13 04:48:31;;;;;;;5.88;3.85;;;;;;;19.64;61.50;100417.66;5018294;28;20033;-73
2022/06/13 04:51:09;;;;;;;7.93;3.45;;;;;;;19.65;61.40;100408.69;5034810;28;20056;-72
2022/06/13 04:53:42;;;;;;;4.95;2.50;;;;;;;19.68;61.48;100421.00;5035745;28;20030;-73
2022/06/13 04:56:07;;;;;;;5.03;2.40;;;;;;;19.75;61.52;100419.69;5035464;28;20311;-73
2022/06/13 04:58:36;;;;;;;5.50;2.80;;;;;;;19.79;61.14;100429.22;5036164;28;20061;-73
2022/06/13 05:01:25;;;;;;;5.25;2.38;;;;;;;19.78;59.74;100443.47;5018349;28;20029;-72
2022/06/13 05:03:52;;;;;;;8.32;3.42;;;;;;;19.71;60.51;100436.81;5031707;28;20088;-72
2022/06/13 05:06:38;;;;;;;7.00;3.42;;;;;;;19.56;60.51;100437.66;5035378;28;20049;-72
2022/06/13 05:09:08;;;;;;;5.53;2.75;;;;;;;19.43;61.31;100438.38;5017184;28;20033;-71
2022/06/13 05:11:47;;;;;;;7.45;2.80;;;;;;;19.44;61.03;100450.75;5033137;28;20053;-70
2022/06/13 05:14:29;;;;;;;6.72;3.20;;;;;;;19.36;61.17;100446.81;5034931;28;20038;-71
2022/06/13 05:17:13;;;;;;;7.68;2.80;;;;;;;19.26;62.00;100454.44;5032375;28;20528;-70
2022/06/13 05:19:41;;;;;;;4.13;2.35;;;;;;;19.27;62.17;100455.28;5032588;28;20420;-70
2022/06/13 05:22:13;;;;;;;5.80;2.85;;;;;;;19.24;62.53;100448.34;5034671;28;20143;-73
2022/06/13 05:24:56;;;;;;;5.07;2.75;;;;;;;19.30;62.58;100450.66;5034155;28;20038;-68
2022/06/13 05:27:22;;;;;;;4.60;2.40;;;;;;;19.35;62.38;100448.63;5034898;28;20094;-69
2022/06/13 05:29:47;;;;;;;5.10;2.65;;;;;;;19.37;62.83;100449.38;5015148;28;20128;-69
2022/06/13 05:32:14;;;;;;;5.45;2.60;;;;;;;19.49;62.57;100446.97;5032477;28;20037;-69
2022/06/13 05:34:43;;;;;;;9.25;2.72;;;;;;;19.51;62.46;100458.38;5033042;28;20038;-68
2022/06/13 05:37:11;;;;;;;5.22;2.53;;;;;;;19.40;62.54;100464.34;5033004;28;20034;-70
2022/06/13 05:39:37;;;;;;;5.45;2.90;;;;;;;19.25;63.15;100471.38;5034273;28;20037;-69
2022/06/13 05:42:03;;;;;;;8.05;2.72;;;;;;;19.27;63.21;100463.28;5017268;28;20034;-69
2022/06/13 05:44:29;;;;;;;4.43;2.58;;;;;;;19.25;63.23;100470.53;5034965;28;20190;-69
2022/06/13 05:46:54;;;;;;;5.72;2.30;;;;;;;19.23;63.13;100475.06;5017190;28;20549;-69
2022/06/13 05:49:20;;;;;;;4.82;2.88;;;;;;;19.18;63.53;100485.97;5016345;28;20059;-68
2022/06/13 05:51:49;;;;;;;4.25;3.00;;;;;;;19.41;63.40;100488.22;5012273;28;20490;-69
2022/06/13 05:54:14;;;;;;;5.68;2.70;;;;;;;19.38;63.67;100482.19;5034843;28;20034;-69
2022/06/13 05:56:40;;;;;;;4.10;2.53;;;;;;;19.47;63.25;100476.38;5035089;28;20052;-69
2022/06/13 05:59:06;;;;;;;6.47;2.72;;;;;;;19.56;63.05;100490.97;5035026;28;20043;-69
2022/06/13 06:01:34;;;;;;;4.63;3.03;;;;;;;19.57;63.22;100492.69;5017393;28;20120;-71
2022/06/13 06:04:00;;;;;;;4.45;2.85;;;;;;;19.38;63.79;100492.84;5032514;28;20112;-69
2022/06/13 06:06:27;;;;;;;5.07;3.00;;;;;;;19.73;62.65;100488.22;5004259;28;20109;-70
2022/06/13 06:08:56;;;;;;;5.10;2.90;;;;;;;19.56;62.98;100480.31;5036661;28;20033;-71
2022/06/13 06:11:24;;;;;;;6.95;2.65;;;;;;;19.54;62.96;100458.19;5021703;28;20044;-71
2022/06/13 06:13:50;;;;;;;7.18;2.83;;;;;;;19.67;62.49;100432.63;5039605;28;20045;-70
2022/06/13 06:16:18;;;;;;;5.32;2.70;;;;;;;19.77;62.41;100427.59;5029408;28;20539;-70
2022/06/13 06:19:09;;;;;;;5.85;2.60;;;;;;;19.87;61.77;100426.97;5033113;28;20031;-68
2022/06/13 06:21:34;;;;;;;8.32;2.63;;;;;;;20.00;61.39;100436.88;5027625;28;20044;-69
2022/06/13 06:23:59;;;;;;;5.78;2.80;;;;;;;20.07;61.54;100451.59;5031445;28;20030;-71
2022/06/13 06:26:27;;;;;;;8.77;5.68;;;;;;;23.55;54.11;100472.00;5031550;28;20049;-66
2022/06/13 06:28:52;;;;;;;7.65;3.17;;;;;;;20.70;59.11;100487.78;5032840;28;20037;-72
2022/06/13 06:31:19;;;;;;;9.48;3.47;;;;;;;20.21;60.47;100478.25;5041423;28;20120;-70
2022/06/13 06:33:45;;;;;;;5.57;3.03;;;;;;;20.13;60.67;100477.88;5012695;28;20040;-70
2022/06/13 06:36:14;;;;;;;5.93;3.10;;;;;;;20.00;60.20;100448.41;5016078;28;20037;-70
2022/06/13 06:38:40;;;;;;;8.68;3.80;;;;;;;19.59;62.09;100435.69;5015797;28;20033;-71
2022/06/13 06:41:05;;;;;;;8.40;3.92;;;;;;;19.85;61.66;100426.19;5033258;28;20029;-70
2022/06/13 06:43:30;;;;;;;9.27;4.40;;;;;;;20.00;61.27;100443.06;5015118;28;20033;-69
2022/06/13 06:45:56;;;;;;;9.07;4.50;;;;;;;19.77;62.09;100460.44;5016200;28;20037;-70
2022/06/13 06:48:24;;;;;;;6.53;4.10;;;;;;;19.87;62.33;100447.44;5033226;28;20041;-69
2022/06/13 06:50:51;;;;;;;8.02;4.07;;;;;;;20.04;62.43;100438.41;5031932;28;20072;-68
2022/06/13 06:53:20;;;;;;;6.70;3.90;;;;;;;20.03;63.07;100448.22;5018836;28;20053;-69
2022/06/13 07:01:18;;;;;;;4.18;2.28;;;;;;;19.91;62.93;100430.31;4981997;28;20049;-69
2022/06/13 07:03:44;;;;;;;4.35;2.50;;;;;;;20.15;62.47;100430.63;5014812;28;20025;-70
2022/06/13 07:06:11;;;;;;;3.25;2.17;;;;;;;20.54;61.46;100426.47;5011212;28;20045;-70
2022/06/13 07:08:37;;;;;;;7.20;2.00;;;;;;;20.73;60.55;100432.38;5015564;28;20060;-70
2022/06/13 07:13:50;;;;;;;5.60;2.20;;;;;;;20.64;60.18;100419.63;5014290;28;20112;-70
2022/06/13 07:16:15;;;;;;;3.10;1.38;;;;;;;20.59;59.12;100422.59;5024738;28;20405;-70
2022/06/13 07:18:41;;;;;;;2.72;1.20;;;;;;;20.83;58.11;100417.50;5032224;28;20026;-70
2022/06/13 07:21:08;;;;;;;2.63;1.05;;;;;;;21.00;57.97;100421.78;5032584;28;20037;-70
2022/06/13 07:23:34;;;;;;;3.55;1.20;;;;;;;21.08;56.79;100416.78;5032469;28;20037;-70
2022/06/13 07:25:59;;;;;;;2.55;1.10;;;;;;;21.01;56.51;100419.94;5031368;28;20049;-71
2022/06/13 07:28:25;;;;;;;2.95;1.10;;;;;;;21.04;56.62;100415.28;5029130;28;20085;-70
2022/06/13 07:30:51;;;;;;;5.28;1.40;;;;;;;20.85;56.53;100420.94;5032866;28;20057;-70
2022/06/13 07:33:17;;;;;;;4.68;1.75;;;;;;;20.80;56.96;100404.34;5014186;28;20113;-70
2022/06/13 07:35:43;;;;;;;2.70;1.27;;;;;;;21.04;56.61;100404.59;5033322;28;20378;-70
2022/06/13 07:38:16;;;;;;;2.80;1.00;;;;;;;21.16;55.60;100405.59;5033446;28;20087;-70
2022/06/13 07:40:45;;;;;;;3.50;1.38;;;;;;;21.10;55.82;100408.66;5016900;28;20108;-70
2022/06/13 07:43:29;;;;;;;3.70;1.40;;;;;;;21.20;55.08;100396.44;5015664;28;20068;-70
2022/06/13 07:45:57;;;;;;;3.78;1.23;;;;;;;21.33;55.10;100393.84;5017698;28;20044;-70
2022/06/13 07:48:23;;;;;;;2.28;0.93;;;;;;;21.48;55.00;100397.31;4999664;28;20037;-71
2022/06/13 07:50:48;;;;;;;4.22;1.10;;;;;;;21.70;54.67;100394.03;5033142;28;20046;-71
2022/06/13 07:53:14;;;;;;;4.60;1.35;;;;;;;21.50;54.85;100403.41;5016364;28;20044;-70
2022/06/13 07:55:40;;;;;;;2.13;0.90;;;;;;;21.70;54.44;100410.94;5033486;28;20441;-70
2022/06/13 07:58:12;;;;;;;3.33;1.00;;;;;;;22.18;53.63;100403.22;5015666;28;20036;-70
2022/06/13 08:00:38;;;;;;;3.67;1.00;;;;;;;22.22;53.41;100401.19;5015777;28;20052;-70
2022/06/13 08:03:06;;;;;;;6.38;1.40;;;;;;;22.30;52.84;100398.81;5033351;28;20042;-69
2022/06/13 08:05:32;;;;;;;2.67;1.30;;;;;;;22.49;52.29;100385.00;5033263;28;20040;-70
2022/06/13 08:07:57;;;;;;;3.15;1.00;;;;;;;22.54;52.01;100382.84;5015531;28;20025;-70
2022/06/13 08:10:23;;;;;;;5.00;1.10;;;;;;;22.72;51.29;100373.50;5032308;28;20042;-71
2022/06/13 08:12:49;;;;;;;4.13;1.00;;;;;;;22.65;51.66;100372.22;5033284;28;20045;-70
2022/06/13 08:15:16;;;;;;;3.63;1.20;;;;;;;22.79;51.13;100376.59;4999284;28;20064;-70
2022/06/13 08:17:42;;;;;;;4.38;1.02;;;;;;;22.95;50.61;100384.41;5033232;28;20108;-70
2022/06/13 08:20:09;;;;;;;3.30;1.10;;;;;;;22.97;49.58;100377.09;5032995;28;20108;-70
2022/06/13 08:22:46;;;;;;;5.97;1.13;;;;;;;23.17;49.88;100372.94;5033327;28;20416;-70
2022/06/13 08:25:26;;;;;;;4.07;1.20;;;;;;;23.07;50.12;100380.84;5033299;28;20028;-70
2022/06/13 08:27:52;;;;;;;4.45;1.10;;;;;;;23.16;49.16;100364.06;5048813;28;20056;-71
2022/06/13 08:30:18;;;;;;;4.38;1.35;;;;;;;23.51;49.18;100374.81;5033053;28;20389;-70
2022/06/13 08:32:43;;;;;;;3.45;1.23;;;;;;;24.29;47.37;100397.47;5033004;28;20116;-70
2022/06/13 08:35:10;;;;;;;4.78;1.17;;;;;;;24.17;47.21;100412.69;5032957;28;20412;-70
2022/06/13 08:37:36;;;;;;;4.93;1.27;;;;;;;24.08;48.14;100410.75;5033321;28;20026;-70
2022/06/13 08:40:04;;;;;;;2.80;0.95;;;;;;;23.62;49.24;100433.03;5036327;28;20507;-71
2022/06/13 08:42:48;;;;;;;3.47;1.25;;;;;;;23.28;50.07;100440.88;5036712;28;20504;-71
2022/06/13 08:45:32;;;;;;;2.92;1.10;;;;;;;22.95;49.64;100436.16;5036527;28;20033;-70
2022/06/13 08:48:10;;;;;;;4.00;1.30;;;;;;;22.93;50.68;100423.84;5036627;28;20060;-71
2022/06/13 08:51:08;;;;;;;3.53;1.40;;;;;;;22.75;50.79;100434.91;5036850;28;20094;-70
2022/06/13 08:53:47;;;;;;;2.72;0.85;;;;;;;22.75;52.51;100429.53;5014098;28;20107;-70
2022/06/13 08:56:16;;;;;;;7.60;1.60;;;;;;;22.77;52.22;100427.59;5036648;28;20098;-71
2022/06/13 08:58:48;;;;;;;3.42;1.17;;;;;;;23.06;51.65;100424.66;5036351;28;20029;-71
2022/06/13 09:01:16;;;;;;;;;;;;;;;22.82;50.52;100416.53;5036720;28;20065;-71
2022/06/13 09:03:59;;;;;;;3.42;1.00;;;;;;;22.96;52.22;100418.28;5035899;28;19920;-70
2022/06/13 09:06:29;;;;;;;5.00;1.52;;;;;;;22.94;52.63;100413.03;5036559;28;20029;-71
2022/06/13 09:09:01;;;;;;;2.92;1.10;;;;;;;23.07;51.89;100415.66;5036262;28;20065;-70
2022/06/13 09:11:38;;;;;;;2.83;1.10;;;;;;;23.38;51.88;100410.69;5051502;28;20044;-71
2022/06/13 09:14:10;;;;;;;4.20;1.42;;;;;;;24.26;48.39;100403.94;5036457;28;20040;-70
2022/06/13 09:16:38;;;;;;;3.03;1.38;;;;;;;23.99;49.94;100409.63;5052446;28;20041;-71
2022/06/13 09:19:13;;;;;;;3.15;0.93;;;;;;;24.09;48.36;100397.19;5036252;28;20029;-71
2022/06/13 09:21:52;;;;;;;2.47;1.10;;;;;;;24.26;47.77;100406.63;5018355;28;20029;-71
2022/06/13 09:24:23;;;;;;;4.82;1.33;;;;;;;24.18;48.59;100405.53;5035996;28;20033;-70
2022/06/13 09:26:55;;;;;;;2.35;1.00;;;;;;;24.22;47.60;100404.31;5035465;28;20030;-72
2022/06/13 09:29:31;;;;;;;3.13;0.93;;;;;;;24.50;48.00;100400.34;5035695;28;20159;-72
2022/06/13 09:32:08;;;;;;;3.13;1.20;;;;;;;24.60;47.99;100404.00;5035452;28;20033;-72
2022/06/13 09:34:43;;;;;;;3.55;1.05;;;;;;;24.54;47.47;100396.44;5034916;28;20025;-70
2022/06/13 09:37:14;;;;;;;3.00;0.98;;;;;;;24.87;47.97;100395.53;5036020;28;20562;-71
2022/06/13 09:39:40;;;;;;;3.88;1.20;;;;;;;24.98;46.47;100389.31;5035804;28;20026;-70
2022/06/13 09:42:21;;;;;;;3.58;0.80;;;;;;;25.08;44.53;100387.56;5035709;28;20116;-70
2022/06/13 09:44:46;;;;;;;3.38;1.05;;;;;;;25.10;45.98;100388.34;5051049;28;20029;-70
2022/06/13 09:47:25;;;;;;;3.65;1.25;;;;;;;24.94;43.83;100385.16;5050876;28;20033;-70
2022/06/13 09:50:31;;;;;;;3.60;0.82;;;;;;;25.17;43.06;100380.59;5018059;28;20064;-70
2022/06/13 09:53:15;;;;;;;1.77;0.80;;;;;;;25.12;44.32;100374.75;4978964;28;20542;-70
2022/06/13 09:56:01;;;;;;;3.78;0.93;;;;;;;25.33;43.22;100369.41;5035489;28;20072;-70
2022/06/13 09:58:41;;;;;;;2.05;0.77;;;;;;;25.38;44.48;100359.16;5035222;28;20026;-71
2022/06/13 10:01:27;;;;;;;4.13;1.10;;;;;;;25.46;41.60;100359.34;5034765;28;20117;-71
2022/06/13 10:04:06;;;;;;;2.05;0.80;;;;;;;25.43;42.11;100354.22;5035271;28;20075;-70
2022/06/13 10:06:49;;;;;;;2.65;0.90;;;;;;;25.61;42.14;100328.44;5017424;28;20104;-71
2022/06/13 10:09:23;;;;;;;;;;;;;;;25.40;40.83;100339.19;5017968;28;20045;-71
2022/06/13 10:12:16;;;;;;;2.95;0.80;;;;;;;25.56;40.74;100344.97;5034962;28;19913;-71
2022/06/13 10:15:00;;;;;;;3.60;0.90;;;;;;;25.62;42.32;100340.94;5002050;28;20038;-72
2022/06/13 10:17:49;;;;;;;3.78;1.00;;;;;;;25.47;41.23;100344.91;5034999;28;20029;-71
2022/06/13 10:20:48;;;;;;;2.17;0.70;;;;;;;25.50;39.98;100341.97;5034951;28;20029;-71
2022/06/13 10:23:30;;;;;;;3.90;0.77;;;;;;;25.49;40.79;100342.94;5034619;28;20029;-71
2022/06/13 10:26:17;;;;;;;4.07;0.93;;;;;;;25.46;40.60;100338.69;5034922;28;20083;-71
2022/06/13 10:28:48;;;;;;;3.10;0.80;;;;;;;25.88;40.73;100340.56;5034607;28;20033;-71
2022/06/13 10:31:57;;;;;;;2.08;0.85;;;;;;;26.19;38.78;100339.59;5034618;28;20033;-71
2022/06/13 10:34:37;;;;;;;1.85;0.70;;;;;;;26.40;40.22;100330.59;4963545;28;20047;-72
2022/06/13 10:37:29;;;;;;;1.92;0.60;;;;;;;26.85;37.76;100319.41;5016957;28;20056;-72
2022/06/13 10:40:00;;;;;;;2.15;0.57;;;;;;;27.17;37.97;100320.06;5034515;28;20109;-72
2022/06/13 10:42:30;;;;;;;2.83;0.75;;;;;;;27.35;36.88;100322.03;5017000;28;20035;-72
2022/06/13 10:44:56;;;;;;;2.42;0.88;;;;;;;27.07;38.43;100319.16;5034256;28;20032;-72
2022/06/13 10:47:33;;;;;;;2.53;0.93;;;;;;;26.80;38.81;100316.28;5016809;28;20461;-72
2022/06/13 10:50:31;;;;;;;2.25;0.90;;;;;;;26.50;37.48;100321.59;5017298;28;20025;-72
2022/06/13 10:53:02;;;;;;;2.20;0.80;;;;;;;26.28;39.47;100322.63;5034605;28;20041;-72
2022/06/13 10:55:33;;;;;;;2.60;0.80;;;;;;;26.58;39.60;100317.38;5032963;28;20021;-73
2022/06/13 10:58:12;;;;;;;3.15;0.88;;;;;;;26.85;38.54;100320.28;5023711;28;20025;-72
2022/06/13 11:00:41;;;;;;;3.90;0.88;;;;;;;26.63;39.76;100324.06;5033533;28;20053;-73
2022/06/13 11:03:16;;;;;;;2.53;1.13;;;;;;;26.80;37.89;100314.44;5021119;28;20046;-72
2022/06/13 11:05:59;;;;;;;2.58;0.70;;;;;;;26.73;38.02;100311.47;5015424;28;20442;-72
2022/06/13 11:08:27;;;;;;;2.40;0.90;;;;;;;26.77;38.95;100317.41;5016244;28;20061;-72
2022/06/13 11:10:59;;;;;;;3.70;1.00;;;;;;;26.77;38.82;100307.50;5033938;28;20049;-72
2022/06/13 11:13:29;;;;;;;2.25;0.85;;;;;;;27.19;38.34;100314.50;5034513;28;20139;-73
2022/06/13 11:24:40;;;;;;;3.05;0.82;;;;;;;26.48;39.33;100323.56;5033384;28;20080;-73
2022/06/13 11:30:16;;;;;;;3.20;0.75;;;;;;;23.40;41.52;100345.28;5033987;28;20048;-74
2022/06/13 11:32:56;;;;;;;1.52;0.90;;;;;;;22.32;44.82;100349.59;4988015;28;20037;-74
2022/06/13 11:35:54;;;;;;;1.95;0.60;;;;;;;21.26;52.61;100377.31;5032519;28;20108;-72
2022/06/13 11:38:23;;;;;;;4.93;0.60;;;;;;;20.21;55.44;100366.22;5026556;28;20067;-71
2022/06/13 11:41:16;;;;;;;3.58;1.10;;;;;;;19.59;64.32;100368.19;5033281;28;20036;-74
2022/06/13 11:43:44;;;;;;;9.60;1.30;;;;;;;19.32;92.94;100366.19;5014801;28;20087;-75
2022/06/13 11:46:30;;;;;;;9.43;1.10;;;;;;;18.66;79.47;100361.91;5032130;28;20038;-76
2022/06/13 11:49:05;;;;;;;2.22;1.20;;;;;;;18.58;74.98;100360.63;5033771;28;20055;-75
2022/06/13 11:51:48;;;;;;;3.60;1.17;;;;;;;19.04;71.88;100368.75;5032539;28;20095;-75
2022/06/13 11:54:22;;;;;;;;;;;;;;;19.21;68.75;100371.28;5014425;28;20042;-73
2022/06/13 11:56:48;;;;;;;3.15;1.02;;;;;;;18.73;70.92;100372.25;5032304;28;19913;-75
2022/06/13 11:59:17;;;;;;;4.60;1.40;;;;;;;18.70;69.99;100383.91;5015985;28;20117;-74
2022/06/13 12:01:43;;;;;;;4.05;1.50;;;;;;;18.72;69.07;100382.06;5032600;28;20100;-74
2022/06/13 12:04:11;;;;;;;3.28;1.45;;;;;;;18.74;70.36;100369.50;5015053;28;20132;-75
2022/06/13 12:06:46;;;;;;;4.13;1.65;;;;;;;18.76;69.54;100372.94;5032142;28;20092;-74
2022/06/13 12:09:23;;;;;;;3.47;1.33;;;;;;;19.08;67.91;100376.47;5032514;28;20103;-74
2022/06/13 12:11:54;;;;;;;4.88;1.17;;;;;;;19.34;67.38;100380.28;5015051;28;20053;-74
2022/06/13 12:14:20;;;;;;;3.17;1.50;;;;;;;19.34;69.07;100377.59;5017380;28;20443;-71
2022/06/13 12:17:02;;;;;;;4.13;1.73;;;;;;;19.77;66.99;100391.13;5018833;28;20088;-72
2022/06/13 12:20:25;;;;;;;6.15;2.15;;;;;;;19.68;62.80;100384.53;5036382;28;20065;-71
2022/06/13 12:23:06;;;;;;;3.42;1.63;;;;;;;19.54;64.45;100375.59;5006270;28;20052;-71
2022/06/13 12:25:50;;;;;;;5.60;1.90;;;;;;;19.60;64.70;100380.56;5018183;28;20416;-71
2022/06/13 12:28:21;;;;;;;5.45;2.13;;;;;;;19.59;68.34;100370.84;5032076;28;20060;-72